Prundu, Romania
Current Conditions -  °F | °C
As of 2:30 PM on Saturday 20 Dec 2014 (Local Time) from LRBS Reporting Station
Clear Clear  
Wind Chill: 52°   Ceiling: Unl
Heat Index: 52°   Visibility: 6mi
Dew Point: 45°   Wind: 9mph
Humidity: 76%   Direction: 250°WSW
Pressure: 30"   Gusts: NA
Location:  44.1°N, 26.23°E
Report Text: LRBS 201130Z 25008KT 220V280 CAVOK 11/07 Q1016 NOSIG
Loading
Personal Weather Stations






























Interactive Weather Map New forecast layout! Learn more

10-Day Weather Forecast

Advertisements
Track Severe Weather on mobile